createdAt,value
2023-05-15T00:00:37.767Z,9.80
2023-05-15T00:03:05.004Z,9.78
2023-05-15T00:05:31.793Z,9.73
2023-05-15T00:07:58.735Z,9.67
2023-05-15T00:10:25.473Z,9.62
2023-05-15T00:12:52.219Z,9.57
2023-05-15T00:15:18.961Z,9.56
2023-05-15T00:17:45.790Z,9.54
2023-05-15T00:20:13.102Z,9.53
2023-05-15T00:22:40.964Z,9.51
2023-05-15T00:25:08.071Z,9.51
2023-05-15T00:27:34.825Z,9.49
2023-05-15T00:30:01.522Z,9.49
2023-05-15T00:32:28.397Z,9.45
2023-05-15T00:34:55.306Z,9.43
2023-05-15T00:37:23.270Z,9.41
2023-05-15T00:39:50.015Z,9.40
2023-05-15T00:42:18.425Z,9.39
2023-05-15T00:44:45.952Z,9.36
2023-05-15T00:47:13.833Z,9.31
2023-05-15T00:49:41.812Z,9.28
2023-05-15T00:52:11.511Z,9.29
2023-05-15T00:54:38.252Z,9.26
2023-05-15T00:57:06.619Z,9.24
2023-05-15T00:59:34.710Z,9.22
2023-05-15T01:02:01.599Z,9.21
2023-05-15T01:04:29.614Z,9.19
2023-05-15T01:06:56.951Z,9.14
2023-05-15T01:09:30.132Z,9.14
2023-05-15T01:11:59.204Z,9.10
2023-05-15T01:14:25.965Z,9.06
2023-05-15T01:16:53.699Z,9.04
2023-05-15T01:19:20.696Z,9.04
2023-05-15T01:22:15.553Z,9.05
2023-05-15T01:25:03.980Z,9.05
2023-05-15T01:27:37.253Z,9.07
2023-05-15T01:30:18.378Z,9.08
2023-05-15T01:33:02.728Z,9.07
2023-05-15T01:35:45.342Z,9.01
2023-05-15T01:38:27.849Z,8.98
2023-05-15T01:41:03.392Z,8.96
2023-05-15T01:43:33.788Z,8.90
2023-05-15T01:46:00.883Z,8.86
2023-05-15T01:48:29.141Z,8.83
2023-05-15T01:51:01.417Z,8.80
2023-05-15T01:53:29.190Z,8.74
2023-05-15T01:55:56.995Z,8.71
2023-05-15T01:58:26.879Z,8.68
2023-05-15T02:00:54.126Z,8.63
2023-05-15T02:03:21.379Z,8.62
2023-05-15T02:05:49.225Z,8.62
2023-05-15T02:08:16.846Z,8.62
2023-05-15T02:10:44.477Z,8.60
2023-05-15T02:13:12.740Z,8.59
2023-05-15T02:15:39.620Z,8.58
2023-05-15T02:18:06.622Z,8.57
2023-05-15T02:20:33.364Z,8.53
2023-05-15T02:23:00.057Z,8.46
2023-05-15T02:25:38.749Z,8.43
2023-05-15T02:28:11.666Z,8.45
2023-05-15T02:30:55.503Z,8.47
2023-05-15T02:33:42.616Z,8.47
2023-05-15T02:36:14.401Z,8.45
2023-05-15T02:38:53.782Z,8.40
2023-05-15T02:41:23.196Z,8.40
2023-05-15T02:43:52.281Z,8.36
2023-05-15T02:46:21.443Z,8.23
2023-05-15T02:48:48.957Z,8.24
2023-05-15T02:51:16.053Z,8.21
2023-05-15T02:53:43.682Z,8.17
2023-05-15T02:56:10.601Z,8.11
2023-05-15T02:58:38.137Z,8.05
2023-05-15T03:01:05.106Z,8.07
2023-05-15T03:03:31.913Z,8.05
2023-05-15T03:06:00.899Z,8.03
2023-05-15T03:08:29.570Z,7.98
2023-05-15T03:10:56.206Z,7.97
2023-05-15T03:13:22.895Z,7.94
2023-05-15T03:15:49.668Z,7.92
2023-05-15T03:18:19.063Z,7.89
2023-05-15T03:20:49.265Z,7.87
2023-05-15T03:23:16.183Z,7.85
2023-05-15T03:25:42.865Z,7.85
2023-05-15T03:28:09.681Z,7.89
2023-05-15T03:30:36.388Z,7.91
2023-05-15T03:33:06.791Z,7.87
2023-05-15T03:35:33.646Z,7.86
2023-05-15T03:38:00.490Z,7.85
2023-05-15T03:40:29.707Z,7.82
2023-05-15T03:42:56.406Z,7.81
2023-05-15T03:45:23.643Z,7.82
2023-05-15T03:47:50.907Z,7.78
2023-05-15T03:50:18.076Z,7.74
2023-05-15T03:52:44.778Z,7.73
2023-05-15T03:55:12.041Z,7.67
2023-05-15T03:57:38.896Z,7.67
2023-05-15T04:00:10.323Z,7.62
2023-05-15T04:02:37.595Z,7.59
2023-05-15T04:05:05.486Z,7.57
2023-05-15T04:07:34.082Z,7.59
2023-05-15T04:10:01.721Z,7.58
2023-05-15T04:12:29.810Z,7.59
2023-05-15T04:15:13.235Z,7.54
2023-05-15T04:17:39.969Z,7.51
2023-05-15T04:20:07.621Z,7.46
2023-05-15T04:22:34.378Z,7.44
2023-05-15T04:25:01.042Z,7.44
2023-05-15T04:27:27.945Z,7.44
2023-05-15T04:29:54.650Z,7.42
2023-05-15T04:32:22.055Z,7.35
2023-05-15T04:34:48.740Z,7.30
2023-05-15T04:37:15.692Z,7.26
2023-05-15T04:39:42.389Z,7.25
2023-05-15T04:42:09.084Z,7.24
2023-05-15T04:44:35.990Z,7.27
2023-05-15T04:47:02.783Z,7.25
2023-05-15T04:49:29.472Z,7.22
2023-05-15T04:51:56.185Z,7.16
2023-05-15T04:54:22.929Z,7.12
2023-05-15T04:56:49.612Z,7.14
2023-05-15T04:59:17.644Z,7.09
2023-05-15T05:01:45.658Z,7.07
2023-05-15T05:04:12.429Z,7.00
2023-05-15T05:06:39.184Z,6.98
2023-05-15T05:09:05.967Z,6.99
2023-05-15T05:11:32.692Z,7.00
2023-05-15T05:13:59.400Z,6.99
2023-05-15T05:16:26.146Z,7.00
2023-05-15T05:18:52.938Z,7.04
2023-05-15T05:21:19.739Z,7.02
2023-05-15T05:23:47.348Z,7.03
2023-05-15T05:26:14.023Z,7.07
2023-05-15T05:28:40.890Z,7.06
2023-05-15T05:31:07.681Z,7.03
2023-05-15T05:33:34.727Z,7.00
2023-05-15T05:36:01.389Z,7.04
2023-05-15T05:38:28.098Z,7.08
2023-05-15T05:40:54.876Z,7.13
2023-05-15T05:43:21.650Z,7.17
2023-05-15T05:45:48.537Z,7.18
2023-05-15T05:48:15.402Z,7.22
2023-05-15T05:50:42.449Z,7.24
2023-05-15T05:53:09.270Z,7.33
2023-05-15T05:55:36.109Z,7.40
2023-05-15T05:58:06.410Z,7.46
2023-05-15T06:00:35.483Z,7.51
2023-05-15T06:03:02.968Z,7.58
2023-05-15T06:05:29.819Z,7.63
2023-05-15T06:07:56.919Z,7.69
2023-05-15T06:10:23.790Z,7.77
2023-05-15T06:12:50.589Z,7.82
2023-05-15T06:15:17.263Z,7.88
2023-05-15T06:17:43.992Z,7.93
2023-05-15T06:20:10.977Z,7.94
2023-05-15T06:22:39.081Z,8.03
2023-05-15T06:25:06.587Z,8.08
2023-05-15T06:27:34.590Z,8.12
2023-05-15T06:30:01.369Z,8.15
2023-05-15T06:32:29.595Z,8.20
2023-05-15T06:34:56.392Z,8.24
2023-05-15T06:37:23.042Z,8.31
2023-05-15T06:39:49.764Z,8.33
2023-05-15T06:42:16.456Z,8.34
2023-05-15T06:44:43.166Z,8.37
2023-05-15T06:47:10.022Z,8.46
2023-05-15T06:49:36.832Z,8.55
2023-05-15T06:52:03.732Z,8.60
2023-05-15T06:54:30.420Z,8.63
2023-05-15T06:56:57.092Z,8.64
2023-05-15T06:59:23.808Z,8.71
2023-05-15T07:01:50.749Z,8.80
2023-05-15T07:04:17.556Z,8.83
2023-05-15T07:06:44.291Z,8.90
2023-05-15T07:09:13.134Z,8.98
2023-05-15T07:11:40.291Z,9.06
2023-05-15T07:14:08.081Z,9.11
2023-05-15T07:16:34.799Z,9.19
2023-05-15T07:19:01.725Z,9.29
2023-05-15T07:21:31.167Z,9.39
2023-05-15T07:23:58.519Z,9.48
2023-05-15T07:26:34.296Z,9.58
2023-05-15T07:29:05.540Z,9.72
2023-05-15T07:31:33.655Z,9.82
2023-05-15T07:34:00.436Z,9.97
2023-05-15T07:36:27.162Z,10.10
2023-05-15T07:38:53.908Z,10.28
2023-05-15T07:41:20.960Z,10.45
2023-05-15T07:43:47.626Z,10.63
2023-05-15T07:46:14.447Z,10.82
2023-05-15T07:48:41.263Z,11.00
2023-05-15T07:51:08.462Z,11.18
2023-05-15T07:53:35.203Z,11.44
2023-05-15T07:56:01.924Z,11.76
2023-05-15T07:58:28.802Z,12.20
2023-05-15T08:00:55.509Z,12.76
2023-05-15T08:03:22.448Z,13.32
2023-05-15T08:05:49.280Z,14.02
2023-05-15T08:08:16.097Z,14.82
2023-05-15T08:10:42.861Z,15.65
2023-05-15T08:13:09.597Z,16.37
2023-05-15T08:15:36.324Z,17.11
2023-05-15T08:18:08.530Z,17.71
2023-05-15T08:20:35.278Z,18.02
2023-05-15T08:23:02.023Z,18.46
2023-05-15T08:25:28.699Z,18.82
2023-05-15T08:27:55.423Z,19.22
2023-05-15T08:30:22.264Z,19.44
2023-05-15T08:32:49.305Z,19.77
2023-05-15T08:35:16.156Z,20.09
2023-05-15T08:37:42.801Z,20.34
2023-05-15T08:40:10.812Z,20.65
2023-05-15T08:42:45.813Z,20.90
2023-05-15T08:45:14.000Z,20.97
2023-05-15T08:47:42.481Z,21.12
2023-05-15T08:50:14.208Z,21.51
2023-05-15T08:52:43.632Z,21.59
2023-05-15T08:55:11.765Z,21.55
2023-05-15T08:57:40.231Z,21.63
2023-05-15T09:00:09.497Z,21.62
2023-05-15T09:02:37.616Z,21.18
2023-05-15T09:05:06.256Z,19.80
2023-05-15T09:07:34.121Z,19.28
2023-05-15T09:10:03.800Z,18.83
2023-05-15T09:12:34.160Z,19.42
2023-05-15T09:15:18.129Z,20.24
2023-05-15T09:17:45.879Z,20.91
2023-05-15T09:20:36.401Z,20.42
2023-05-15T09:23:05.500Z,19.50
2023-05-15T09:25:40.676Z,19.12
2023-05-15T09:28:10.664Z,19.79
2023-05-15T09:30:42.291Z,20.68
2023-05-15T09:33:09.795Z,21.43
2023-05-15T09:35:38.709Z,22.08
2023-05-15T09:38:10.643Z,22.54
2023-05-15T09:40:39.241Z,22.70
2023-05-15T09:43:05.953Z,22.82
2023-05-15T09:45:32.644Z,22.27
2023-05-15T09:48:07.289Z,21.08
2023-05-15T09:50:36.517Z,19.72
2023-05-15T09:53:04.204Z,18.68
2023-05-15T09:55:34.855Z,17.74
2023-05-15T09:58:15.719Z,17.05
2023-05-15T10:00:47.357Z,16.70
2023-05-15T10:03:19.852Z,17.04
2023-05-15T10:05:46.997Z,18.07
2023-05-15T10:08:15.947Z,19.15
2023-05-15T10:10:43.785Z,19.46
2023-05-15T10:13:11.936Z,19.08
2023-05-15T10:15:39.868Z,19.08
2023-05-15T10:18:07.984Z,19.32
2023-05-15T10:20:36.035Z,18.79
2023-05-15T10:23:06.001Z,18.19
2023-05-15T10:25:45.893Z,17.79
2023-05-15T10:28:12.680Z,17.71
2023-05-15T10:30:39.537Z,17.36
2023-05-15T10:33:07.575Z,17.00
2023-05-15T10:35:36.322Z,16.67
2023-05-15T10:38:06.194Z,16.39
2023-05-15T10:40:36.800Z,16.14
2023-05-15T10:43:05.055Z,16.00
2023-05-15T10:45:32.863Z,15.96
2023-05-15T10:48:01.115Z,16.05
2023-05-15T10:50:28.137Z,16.10
2023-05-15T10:52:56.053Z,16.07
2023-05-15T10:55:23.316Z,16.04
2023-05-15T10:57:50.193Z,16.15
2023-05-15T11:00:23.253Z,16.33
2023-05-15T11:02:56.572Z,16.35
2023-05-15T11:05:24.404Z,16.49
2023-05-15T11:08:27.419Z,16.86
2023-05-15T11:10:54.605Z,17.14
2023-05-15T11:13:21.897Z,17.19
2023-05-15T11:15:49.222Z,17.11
2023-05-15T11:18:16.689Z,17.09
2023-05-15T11:20:52.485Z,17.11
2023-05-15T11:23:23.233Z,17.19
2023-05-15T11:26:01.680Z,17.23
2023-05-15T11:28:30.031Z,17.16
2023-05-15T11:31:07.103Z,17.28
2023-05-15T11:33:33.962Z,17.55
2023-05-15T11:36:01.678Z,17.43
2023-05-15T11:38:28.510Z,17.18
2023-05-15T11:40:58.694Z,16.81
2023-05-15T11:43:32.260Z,16.57
2023-05-15T11:46:10.280Z,16.41
2023-05-15T11:48:44.793Z,16.29
2023-05-15T11:51:19.975Z,16.21
2023-05-15T11:53:47.496Z,16.16
2023-05-15T11:56:22.998Z,16.07
2023-05-15T11:58:50.872Z,16.23
2023-05-15T12:01:17.835Z,16.58
2023-05-15T12:03:47.850Z,17.01
2023-05-15T12:06:14.901Z,17.33
2023-05-15T12:08:42.271Z,17.32
2023-05-15T12:11:10.953Z,17.45
2023-05-15T12:13:37.685Z,17.59
2023-05-15T12:16:05.210Z,17.60
2023-05-15T12:18:33.082Z,17.51
2023-05-15T12:21:00.645Z,17.49
2023-05-15T12:23:29.301Z,17.57
2023-05-15T12:26:03.433Z,17.68
2023-05-15T12:28:31.672Z,17.88
2023-05-15T12:30:59.558Z,18.11
2023-05-15T12:33:26.689Z,18.29
2023-05-15T12:36:00.257Z,18.42
2023-05-15T12:38:28.185Z,18.60
2023-05-15T12:40:55.358Z,18.78
2023-05-15T12:43:25.175Z,18.93
2023-05-15T12:45:56.123Z,18.90
2023-05-15T12:48:32.758Z,18.76
2023-05-15T12:51:07.645Z,18.50
2023-05-15T12:53:35.077Z,18.61
2023-05-15T12:56:02.314Z,18.89
2023-05-15T12:58:29.168Z,19.17
2023-05-15T13:00:57.077Z,19.39
2023-05-15T13:03:25.253Z,19.62
2023-05-15T13:05:53.139Z,19.72
2023-05-15T13:08:19.864Z,19.39
2023-05-15T13:10:47.834Z,19.00
2023-05-15T13:13:16.733Z,18.75
2023-05-15T13:15:44.858Z,18.58
2023-05-15T13:18:18.485Z,18.42
2023-05-15T13:20:47.272Z,18.22
2023-05-15T13:23:24.959Z,17.99
2023-05-15T13:25:51.697Z,17.75
2023-05-15T13:28:18.424Z,17.52
2023-05-15T13:30:45.971Z,17.20
2023-05-15T13:33:13.058Z,16.98
2023-05-15T13:35:43.399Z,16.98
2023-05-15T13:38:11.869Z,16.94
2023-05-15T13:40:39.209Z,16.85
2023-05-15T13:43:08.788Z,16.80
2023-05-15T13:45:35.830Z,16.82
2023-05-15T13:48:02.677Z,16.83
2023-05-15T13:50:29.453Z,16.90
2023-05-15T13:52:56.468Z,16.97
2023-05-15T13:55:23.555Z,16.91
2023-05-15T13:57:51.448Z,16.86
2023-05-15T14:00:18.729Z,16.87
2023-05-15T14:02:45.523Z,16.84
2023-05-15T14:05:14.577Z,16.81
2023-05-15T14:07:42.196Z,16.74
2023-05-15T14:10:09.460Z,16.78
2023-05-15T14:12:37.217Z,16.80
2023-05-15T14:15:04.407Z,16.74
2023-05-15T14:17:31.329Z,16.68
2023-05-15T14:19:58.044Z,16.64
2023-05-15T14:22:25.245Z,16.69
2023-05-15T14:24:53.379Z,16.74
2023-05-15T14:27:21.377Z,16.87
2023-05-15T14:29:49.498Z,16.97
2023-05-15T14:32:16.892Z,17.07
2023-05-15T14:34:43.971Z,17.10
2023-05-15T14:37:10.891Z,17.07
2023-05-15T14:39:37.738Z,16.99
2023-05-15T14:42:04.789Z,17.12
2023-05-15T14:44:31.643Z,17.13
2023-05-15T14:47:12.850Z,17.12
2023-05-15T14:49:40.162Z,17.18
2023-05-15T14:52:09.233Z,17.19
2023-05-15T14:54:36.567Z,17.20
2023-05-15T14:57:04.036Z,17.29
2023-05-15T14:59:31.004Z,17.34
2023-05-15T15:01:57.815Z,17.38
2023-05-15T15:04:26.826Z,17.29
2023-05-15T15:06:57.163Z,17.54
2023-05-15T15:09:25.652Z,17.92
2023-05-15T15:11:53.815Z,18.39
2023-05-15T15:14:20.957Z,18.80
2023-05-15T15:16:48.113Z,18.94
2023-05-15T15:19:16.722Z,19.04
2023-05-15T15:21:45.170Z,19.37
2023-05-15T15:24:11.937Z,19.47
2023-05-15T15:26:38.696Z,19.40
2023-05-15T15:29:05.885Z,19.51
2023-05-15T15:31:32.984Z,19.91
2023-05-15T15:33:59.830Z,20.26
2023-05-15T15:36:26.590Z,20.53
2023-05-15T15:38:53.598Z,20.93
2023-05-15T15:41:23.718Z,21.39
2023-05-15T15:43:50.673Z,21.59
2023-05-15T15:46:17.535Z,21.46
2023-05-15T15:48:44.587Z,21.55
2023-05-15T15:51:12.519Z,21.66
2023-05-15T15:53:40.488Z,21.43
2023-05-15T15:56:07.670Z,21.22
2023-05-15T15:58:34.478Z,20.99
2023-05-15T16:01:02.965Z,20.67
2023-05-15T16:03:31.846Z,20.17
2023-05-15T16:06:00.952Z,19.79
2023-05-15T16:08:27.706Z,19.49
2023-05-15T16:10:55.117Z,19.19
2023-05-15T16:13:21.915Z,18.99
2023-05-15T16:15:48.749Z,18.72
2023-05-15T16:18:15.597Z,18.49
2023-05-15T16:20:42.440Z,18.25
2023-05-15T16:23:11.711Z,17.97
2023-05-15T16:25:38.522Z,17.79
2023-05-15T16:28:05.341Z,17.63
2023-05-15T16:30:47.365Z,17.61
2023-05-15T16:33:17.690Z,17.51
2023-05-15T16:35:45.128Z,17.50
2023-05-15T16:38:13.473Z,17.43
2023-05-15T16:40:40.307Z,17.30
2023-05-15T16:43:07.268Z,17.25
2023-05-15T16:45:34.036Z,17.25
2023-05-15T16:48:00.975Z,17.26
2023-05-15T16:50:27.987Z,17.22
2023-05-15T16:52:55.067Z,17.15
2023-05-15T16:55:21.945Z,17.08
2023-05-15T16:57:48.666Z,17.05
2023-05-15T17:00:16.431Z,17.02
2023-05-15T17:02:44.055Z,16.97
2023-05-15T17:05:11.604Z,16.98
2023-05-15T17:07:39.118Z,16.97
2023-05-15T17:10:07.847Z,16.97
2023-05-15T17:12:35.509Z,16.90
2023-05-15T17:15:03.077Z,16.80
2023-05-15T17:17:29.910Z,16.77
2023-05-15T17:19:57.182Z,16.71
2023-05-15T17:22:24.129Z,16.70
2023-05-15T17:24:52.270Z,16.73
2023-05-15T17:27:19.679Z,16.77
2023-05-15T17:29:47.449Z,16.73
2023-05-15T17:32:14.309Z,16.67
2023-05-15T17:34:41.220Z,16.60
2023-05-15T17:37:08.377Z,16.61
2023-05-15T17:39:35.514Z,16.59
2023-05-15T17:42:03.381Z,16.64
2023-05-15T17:44:31.297Z,16.64
2023-05-15T17:46:58.599Z,16.58
2023-05-15T17:49:26.361Z,16.49
2023-05-15T17:51:53.780Z,16.41
2023-05-15T17:54:20.765Z,16.38
2023-05-15T17:56:48.343Z,16.33
2023-05-15T17:59:15.475Z,16.31
2023-05-15T18:01:42.624Z,16.19
2023-05-15T18:04:09.527Z,16.06
2023-05-15T18:06:36.799Z,15.97
2023-05-15T18:09:05.216Z,15.93
2023-05-15T18:11:32.081Z,15.88
2023-05-15T18:13:58.859Z,15.80
2023-05-15T18:16:25.803Z,15.80
2023-05-15T18:18:52.921Z,15.77
2023-05-15T18:21:20.081Z,15.74
2023-05-15T18:23:46.795Z,15.73
2023-05-15T18:26:13.568Z,15.70
2023-05-15T18:28:40.350Z,15.72
2023-05-15T18:31:07.409Z,15.72
2023-05-15T18:33:34.641Z,15.75
2023-05-15T18:36:01.443Z,15.82
2023-05-15T18:38:28.881Z,15.87
2023-05-15T18:40:55.676Z,15.94
2023-05-15T18:43:22.404Z,15.97
2023-05-15T18:45:49.192Z,15.94
2023-05-15T18:48:15.918Z,15.91
2023-05-15T18:50:42.807Z,15.82
2023-05-15T18:53:10.851Z,15.74
2023-05-15T18:55:38.959Z,15.69
2023-05-15T18:58:06.206Z,15.64
2023-05-15T19:00:39.022Z,15.53
2023-05-15T19:03:07.076Z,15.55
2023-05-15T19:05:34.329Z,15.56
2023-05-15T19:08:02.017Z,15.53
2023-05-15T19:10:29.775Z,15.48
2023-05-15T19:12:57.476Z,15.44
2023-05-15T19:15:25.377Z,15.35
2023-05-15T19:17:52.296Z,15.23
2023-05-15T19:20:19.503Z,15.09
2023-05-15T19:22:46.427Z,15.01
2023-05-15T19:25:13.310Z,14.93
2023-05-15T19:27:40.302Z,14.86
2023-05-15T19:30:07.953Z,14.81
2023-05-15T19:32:34.930Z,14.79
2023-05-15T19:35:02.767Z,14.70
2023-05-15T19:37:29.841Z,14.62
2023-05-15T19:39:57.224Z,14.54
2023-05-15T19:42:24.444Z,14.43
2023-05-15T19:44:51.207Z,14.38
2023-05-15T19:47:18.234Z,14.34
2023-05-15T19:49:45.926Z,14.28
2023-05-15T19:52:12.658Z,14.24
2023-05-15T19:54:39.360Z,14.18
2023-05-15T19:57:06.206Z,14.16
2023-05-15T19:59:32.980Z,14.08
2023-05-15T20:02:01.913Z,14.08
2023-05-15T20:04:29.350Z,14.07
2023-05-15T20:06:56.388Z,14.05
2023-05-15T20:09:23.284Z,14.01
2023-05-15T20:11:50.563Z,13.98
2023-05-15T20:14:17.487Z,13.90
2023-05-15T20:16:44.800Z,13.84
2023-05-15T20:19:12.675Z,13.77
2023-05-15T20:21:39.802Z,13.72
2023-05-15T20:24:07.132Z,13.66
2023-05-15T20:26:36.117Z,13.58
2023-05-15T20:29:03.696Z,13.53
2023-05-15T20:31:30.664Z,13.44
2023-05-15T20:33:57.692Z,13.40
2023-05-15T20:36:25.777Z,13.37
2023-05-15T20:38:52.947Z,13.31
2023-05-15T20:41:22.274Z,13.27
2023-05-15T20:43:49.850Z,13.23
2023-05-15T20:46:16.823Z,13.21
2023-05-15T20:48:43.542Z,13.24
2023-05-15T20:51:10.295Z,13.24
2023-05-15T20:53:36.994Z,13.27
2023-05-15T20:56:03.945Z,13.27
2023-05-15T20:58:30.800Z,13.26
2023-05-15T21:01:00.993Z,13.27
2023-05-15T21:03:29.058Z,13.26
2023-05-15T21:05:57.553Z,13.27
2023-05-15T21:08:25.643Z,13.28
2023-05-15T21:10:55.501Z,13.23
2023-05-15T21:13:22.458Z,13.14
2023-05-15T21:15:50.625Z,13.08
2023-05-15T21:18:19.571Z,13.02
2023-05-15T21:20:46.300Z,12.99
2023-05-15T21:23:13.565Z,12.92
2023-05-15T21:25:42.549Z,12.88
2023-05-15T21:28:09.561Z,12.82
2023-05-15T21:30:36.268Z,12.78
2023-05-15T21:33:04.105Z,12.73
2023-05-15T21:35:31.932Z,12.70
2023-05-15T21:37:58.803Z,12.66
2023-05-15T21:40:25.804Z,12.63
2023-05-15T21:42:52.754Z,12.60
2023-05-15T21:45:19.635Z,12.59
2023-05-15T21:47:46.370Z,12.56
2023-05-15T21:50:17.674Z,12.51
2023-05-15T21:52:44.426Z,12.45
2023-05-15T21:55:11.356Z,12.37
2023-05-15T21:57:38.246Z,12.35
2023-05-15T22:00:07.542Z,12.34
2023-05-15T22:02:35.028Z,12.29
2023-05-15T22:05:02.097Z,12.21
2023-05-15T22:07:28.818Z,12.14
2023-05-15T22:09:55.970Z,12.09
2023-05-15T22:12:22.852Z,12.04
2023-05-15T22:14:58.481Z,12.02
2023-05-15T22:17:29.194Z,11.97
2023-05-15T22:20:06.487Z,11.94
2023-05-15T22:22:35.191Z,11.87
2023-05-15T22:25:01.956Z,11.80
2023-05-15T22:27:28.775Z,11.79
2023-05-15T22:29:55.865Z,11.76
2023-05-15T22:32:23.316Z,11.73
2023-05-15T22:34:50.068Z,11.67
2023-05-15T22:37:16.797Z,11.64
2023-05-15T22:39:43.865Z,11.62
2023-05-15T22:42:10.650Z,11.59
2023-05-15T22:44:37.335Z,11.54
2023-05-15T22:47:04.258Z,11.49
2023-05-15T22:49:31.038Z,11.44
2023-05-15T22:51:58.269Z,11.38
2023-05-15T22:54:25.076Z,11.31
2023-05-15T22:56:52.591Z,11.22
2023-05-15T22:59:19.682Z,11.21
2023-05-15T23:01:46.886Z,11.20
2023-05-15T23:04:14.098Z,11.16
2023-05-15T23:06:41.159Z,11.12
2023-05-15T23:09:08.663Z,11.07
2023-05-15T23:11:35.652Z,11.02
2023-05-15T23:14:03.154Z,10.98
2023-05-15T23:16:31.191Z,10.93
2023-05-15T23:18:58.187Z,10.90
2023-05-15T23:21:25.067Z,10.91
2023-05-15T23:23:51.830Z,10.92
2023-05-15T23:26:18.599Z,10.89
2023-05-15T23:28:45.421Z,10.85
2023-05-15T23:31:15.227Z,10.82
2023-05-15T23:33:42.996Z,10.79
2023-05-15T23:36:09.970Z,10.77
2023-05-15T23:38:39.955Z,10.73
2023-05-15T23:41:06.770Z,10.69
2023-05-15T23:43:33.503Z,10.67
2023-05-15T23:46:00.377Z,10.66
2023-05-15T23:48:28.575Z,10.63
2023-05-15T23:50:55.479Z,10.62
2023-05-15T23:53:22.221Z,10.57
2023-05-15T23:55:49.082Z,10.55
2023-05-15T23:58:15.905Z,10.53
